sensor_id;sensor_type;location;lat;lon;timestamp;pressure;altitude;pressure_sealevel;temperature;humidity
74973;BME280;63529;56.320;43.990;2022-09-30T00:01:45;99952.81;;;8.60;85.55
74973;BME280;63529;56.320;43.990;2022-09-30T00:04:17;99961.91;;;8.64;85.82
74973;BME280;63529;56.320;43.990;2022-09-30T00:06:44;99961.91;;;8.64;85.64
74973;BME280;63529;56.320;43.990;2022-09-30T00:09:11;99958.22;;;8.65;85.75
74973;BME280;63529;56.320;43.990;2022-09-30T00:11:38;99957.41;;;8.64;85.67
74973;BME280;63529;56.320;43.990;2022-09-30T00:14:06;99963.78;;;8.63;85.60
74973;BME280;63529;56.320;43.990;2022-09-30T00:16:35;99964.59;;;8.64;85.60
74973;BME280;63529;56.320;43.990;2022-09-30T00:19:02;99973.13;;;8.66;85.73
74973;BME280;63529;56.320;43.990;2022-09-30T00:21:30;99965.13;;;8.66;85.72
74973;BME280;63529;56.320;43.990;2022-09-30T00:23:59;99968.38;;;8.68;85.71
74973;BME280;63529;56.320;43.990;2022-09-30T00:26:25;99967.31;;;8.69;85.78
74973;BME280;63529;56.320;43.990;2022-09-30T00:28:54;99966.25;;;8.70;85.70
74973;BME280;63529;56.320;43.990;2022-09-30T00:31:23;99967.88;;;8.71;85.75
74973;BME280;63529;56.320;43.990;2022-09-30T00:33:49;99968.41;;;8.73;85.71
74973;BME280;63529;56.320;43.990;2022-09-30T00:39:03;99974.88;;;8.77;85.97
74973;BME280;63529;56.320;43.990;2022-09-30T00:41:29;99979.72;;;8.80;86.01
74973;BME280;63529;56.320;43.990;2022-09-30T00:43:55;99979.22;;;8.83;86.09
74973;BME280;63529;56.320;43.990;2022-09-30T00:48:51;99990.00;;;8.93;86.11
74973;BME280;63529;56.320;43.990;2022-09-30T00:51:52;99985.78;;;8.97;86.13
74973;BME280;63529;56.320;43.990;2022-09-30T00:54:25;99984.78;;;9.04;86.27
74973;BME280;63529;56.320;43.990;2022-09-30T00:56:57;99989.38;;;9.08;86.24
74973;BME280;63529;56.320;43.990;2022-09-30T01:01:54;99988.69;;;9.18;85.91
74973;BME280;63529;56.320;43.990;2022-09-30T01:04:22;99992.72;;;9.20;86.04
74973;BME280;63529;56.320;43.990;2022-09-30T01:06:49;99989.56;;;9.23;85.83
74973;BME280;63529;56.320;43.990;2022-09-30T01:09:16;99988.25;;;9.26;85.83
74973;BME280;63529;56.320;43.990;2022-09-30T01:11:43;99990.41;;;9.29;85.75
74973;BME280;63529;56.320;43.990;2022-09-30T01:14:15;99990.97;;;9.31;85.67
74973;BME280;63529;56.320;43.990;2022-09-30T01:16:59;99998.22;;;9.36;85.49
74973;BME280;63529;56.320;43.990;2022-09-30T01:41:58;100009.41;;;9.38;84.56
74973;BME280;63529;56.320;43.990;2022-09-30T01:47:57;100011.28;;;9.37;84.75
74973;BME280;63529;56.320;43.990;2022-09-30T01:56:16;100009.41;;;9.38;84.64
74973;BME280;63529;56.320;43.990;2022-09-30T01:58:56;100005.16;;;9.37;84.35
74973;BME280;63529;56.320;43.990;2022-09-30T02:01:29;100005.66;;;9.34;84.20
74973;BME280;63529;56.320;43.990;2022-09-30T02:04:04;100016.53;;;9.32;84.16
74973;BME280;63529;56.320;43.990;2022-09-30T02:06:40;100011.97;;;9.28;83.89
74973;BME280;63529;56.320;43.990;2022-09-30T02:09:19;100017.50;;;9.21;83.90
74973;BME280;63529;56.320;43.990;2022-09-30T02:11:47;100017.44;;;9.16;83.75
74973;BME280;63529;56.320;43.990;2022-09-30T02:17:04;100015.13;;;9.03;84.01
74973;BME280;63529;56.320;43.990;2022-09-30T02:19:39;100013.78;;;9.00;84.30
74973;BME280;63529;56.320;43.990;2022-09-30T02:22:14;100021.75;;;9.00;84.39
74973;BME280;63529;56.320;43.990;2022-09-30T02:24:43;100021.19;;;8.98;84.56
74973;BME280;63529;56.320;43.990;2022-09-30T02:27:18;100026.50;;;8.98;84.65
74973;BME280;63529;56.320;43.990;2022-09-30T02:29:50;100037.75;;;9.00;84.68
74973;BME280;63529;56.320;43.990;2022-09-30T02:32:25;100041.22;;;9.01;84.68
74973;BME280;63529;56.320;43.990;2022-09-30T02:34:56;100039.34;;;9.01;84.37
74973;BME280;63529;56.320;43.990;2022-09-30T02:37:36;100039.09;;;9.03;84.44
74973;BME280;63529;56.320;43.990;2022-09-30T02:42:37;100043.38;;;9.04;84.48
74973;BME280;63529;56.320;43.990;2022-09-30T02:45:07;100047.88;;;9.03;84.29
74973;BME280;63529;56.320;43.990;2022-09-30T02:50:33;100045.22;;;9.03;84.41
74973;BME280;63529;56.320;43.990;2022-09-30T02:53:24;100053.53;;;9.07;84.54
74973;BME280;63529;56.320;43.990;2022-09-30T02:56:09;100046.91;;;9.09;84.59
74973;BME280;63529;56.320;43.990;2022-09-30T02:58:37;100043.97;;;9.11;84.31
74973;BME280;63529;56.320;43.990;2022-09-30T03:01:06;100048.50;;;9.10;84.06
74973;BME280;63529;56.320;43.990;2022-09-30T03:03:41;100042.88;;;9.07;83.66
74973;BME280;63529;56.320;43.990;2022-09-30T03:06:09;100042.06;;;9.06;83.65
74973;BME280;63529;56.320;43.990;2022-09-30T03:08:35;100041.75;;;9.03;83.48
74973;BME280;63529;56.320;43.990;2022-09-30T03:11:02;100035.06;;;9.00;83.44
74973;BME280;63529;56.320;43.990;2022-09-30T03:22:05;100044.91;;;9.00;83.49
74973;BME280;63529;56.320;43.990;2022-09-30T03:27:40;100041.06;;;9.12;83.21
74973;BME280;63529;56.320;43.990;2022-09-30T03:30:18;100047.53;;;9.16;82.94
74973;BME280;63529;56.320;43.990;2022-09-30T03:38:49;100048.38;;;9.44;82.37
74973;BME280;63529;56.320;43.990;2022-09-30T03:41:45;100045.53;;;9.50;81.90
74973;BME280;63529;56.320;43.990;2022-09-30T03:44:26;100054.66;;;9.55;81.70
74973;BME280;63529;56.320;43.990;2022-09-30T03:47:00;100053.59;;;9.56;81.46
74973;BME280;63529;56.320;43.990;2022-09-30T03:49:42;100062.13;;;9.58;81.41
74973;BME280;63529;56.320;43.990;2022-09-30T03:52:11;100062.69;;;9.60;81.46
74973;BME280;63529;56.320;43.990;2022-09-30T03:54:55;100061.72;;;9.66;81.31
74973;BME280;63529;56.320;43.990;2022-09-30T03:57:28;100061.50;;;9.72;81.19
74973;BME280;63529;56.320;43.990;2022-09-30T03:59:58;100061.91;;;9.86;80.67
74973;BME280;63529;56.320;43.990;2022-09-30T04:02:25;100064.72;;;10.01;80.41
74973;BME280;63529;56.320;43.990;2022-09-30T04:04:51;100065.91;;;10.16;79.86
74973;BME280;63529;56.320;43.990;2022-09-30T04:07:17;100058.09;;;10.31;79.43
74973;BME280;63529;56.320;43.990;2022-09-30T04:09:43;100048.06;;;10.48;78.81
74973;BME280;63529;56.320;43.990;2022-09-30T04:12:10;100057.56;;;10.66;78.05
74973;BME280;63529;56.320;43.990;2022-09-30T04:14:36;100074.22;;;10.83;77.54
74973;BME280;63529;56.320;43.990;2022-09-30T04:17:03;100057.75;;;10.97;76.65
74973;BME280;63529;56.320;43.990;2022-09-30T04:19:29;100060.22;;;11.13;76.21
74973;BME280;63529;56.320;43.990;2022-09-30T04:21:55;100065.91;;;11.22;75.70
74973;BME280;63529;56.320;43.990;2022-09-30T04:24:22;100067.25;;;11.30;75.52
74973;BME280;63529;56.320;43.990;2022-09-30T04:26:49;100067.81;;;11.37;75.37
74973;BME280;63529;56.320;43.990;2022-09-30T04:29:16;100072.38;;;11.36;75.11
74973;BME280;63529;56.320;43.990;2022-09-30T04:31:42;100084.91;;;11.31;75.20
74973;BME280;63529;56.320;43.990;2022-09-30T04:34:08;100070.16;;;11.23;75.31
74973;BME280;63529;56.320;43.990;2022-09-30T04:36:35;100077.34;;;11.18;75.71
74973;BME280;63529;56.320;43.990;2022-09-30T04:39:01;100073.56;;;11.08;75.61
74973;BME280;63529;56.320;43.990;2022-09-30T04:41:27;100069.31;;;11.12;75.61
74973;BME280;63529;56.320;43.990;2022-09-30T04:43:54;100077.84;;;11.09;75.39
74973;BME280;63529;56.320;43.990;2022-09-30T04:46:21;100069.03;;;11.09;75.61
74973;BME280;63529;56.320;43.990;2022-09-30T04:48:48;100067.72;;;11.11;75.82
74973;BME280;63529;56.320;43.990;2022-09-30T04:51:22;100077.84;;;11.09;75.80
74973;BME280;63529;56.320;43.990;2022-09-30T04:53:48;100085.56;;;11.06;75.67
74973;BME280;63529;56.320;43.990;2022-09-30T04:56:15;100083.97;;;11.05;75.99
74973;BME280;63529;56.320;43.990;2022-09-30T04:58:44;100093.31;;;11.07;76.27
74973;BME280;63529;56.320;43.990;2022-09-30T05:01:13;100093.88;;;11.09;76.24
74973;BME280;63529;56.320;43.990;2022-09-30T05:03:40;100101.38;;;11.12;76.44
74973;BME280;63529;56.320;43.990;2022-09-30T05:06:08;100113.41;;;11.15;76.34
74973;BME280;63529;56.320;43.990;2022-09-30T05:08:43;100119.03;;;11.19;76.25
74973;BME280;63529;56.320;43.990;2022-09-30T05:11:13;100121.72;;;11.19;76.20
74973;BME280;63529;56.320;43.990;2022-09-30T05:13:40;100121.97;;;11.17;76.27
74973;BME280;63529;56.320;43.990;2022-09-30T05:16:07;100127.00;;;11.08;76.03
74973;BME280;63529;56.320;43.990;2022-09-30T05:18:33;100137.63;;;10.98;76.40
74973;BME280;63529;56.320;43.990;2022-09-30T05:21:00;100134.63;;;10.90;76.59
74973;BME280;63529;56.320;43.990;2022-09-30T05:23:28;100134.00;;;10.77;77.12
74973;BME280;63529;56.320;43.990;2022-09-30T05:25:55;100137.69;;;10.71;77.22
74973;BME280;63529;56.320;43.990;2022-09-30T05:28:22;100131.50;;;10.66;77.60
74973;BME280;63529;56.320;43.990;2022-09-30T05:30:48;100135.50;;;10.63;77.72
74973;BME280;63529;56.320;43.990;2022-09-30T05:33:17;100137.59;;;10.61;77.86
74973;BME280;63529;56.320;43.990;2022-09-30T05:35:44;100129.88;;;10.65;78.17
74973;BME280;63529;56.320;43.990;2022-09-30T05:38:10;100135.22;;;10.65;78.09
74973;BME280;63529;56.320;43.990;2022-09-30T05:40:41;100142.44;;;10.64;78.29
74973;BME280;63529;56.320;43.990;2022-09-30T05:43:07;100138.38;;;10.62;78.28
74973;BME280;63529;56.320;43.990;2022-09-30T05:45:33;100142.94;;;10.61;78.43
74973;BME280;63529;56.320;43.990;2022-09-30T05:47:59;100146.66;;;10.60;78.41
74973;BME280;63529;56.320;43.990;2022-09-30T05:50:25;100148.78;;;10.58;78.66
74973;BME280;63529;56.320;43.990;2022-09-30T05:52:51;100157.66;;;10.64;78.76
74973;BME280;63529;56.320;43.990;2022-09-30T05:55:19;100153.13;;;10.69;78.72
74973;BME280;63529;56.320;43.990;2022-09-30T05:57:47;100159.31;;;10.70;78.68
74973;BME280;63529;56.320;43.990;2022-09-30T06:00:15;100157.44;;;10.70;78.73
74973;BME280;63529;56.320;43.990;2022-09-30T06:02:41;100167.09;;;10.76;78.68
74973;BME280;63529;56.320;43.990;2022-09-30T06:05:08;100156.44;;;10.81;78.81
74973;BME280;63529;56.320;43.990;2022-09-30T06:07:35;100175.22;;;10.92;78.74
74973;BME280;63529;56.320;43.990;2022-09-30T06:10:06;100165.44;;;11.02;78.68
74973;BME280;63529;56.320;43.990;2022-09-30T06:12:33;100165.78;;;11.16;78.29
74973;BME280;63529;56.320;43.990;2022-09-30T06:15:01;100164.00;;;11.32;78.17
74973;BME280;63529;56.320;43.990;2022-09-30T06:17:28;100171.06;;;11.53;77.53
74973;BME280;63529;56.320;43.990;2022-09-30T06:19:54;100162.34;;;11.68;77.11
74973;BME280;63529;56.320;43.990;2022-09-30T06:22:21;100166.19;;;11.87;76.99
74973;BME280;63529;56.320;43.990;2022-09-30T06:24:47;100163.84;;;12.06;76.31
74973;BME280;63529;56.320;43.990;2022-09-30T06:27:13;100172.16;;;12.15;75.91
74973;BME280;63529;56.320;43.990;2022-09-30T06:29:39;100169.75;;;12.13;76.01
74973;BME280;63529;56.320;43.990;2022-09-30T06:32:06;100175.09;;;12.13;76.03
74973;BME280;63529;56.320;43.990;2022-09-30T06:34:32;100178.31;;;12.15;75.91
74973;BME280;63529;56.320;43.990;2022-09-30T06:36:58;100170.53;;;12.19;76.13
74973;BME280;63529;56.320;43.990;2022-09-30T06:39:24;100173.53;;;12.33;76.00
74973;BME280;63529;56.320;43.990;2022-09-30T06:41:52;100156.41;;;12.49;75.76
74973;BME280;63529;56.320;43.990;2022-09-30T06:44:23;100167.13;;;12.69;75.29
74973;BME280;63529;56.320;43.990;2022-09-30T06:46:49;100160.16;;;12.84;74.83
74973;BME280;63529;56.320;43.990;2022-09-30T06:49:15;100163.94;;;12.98;74.51
74973;BME280;63529;56.320;43.990;2022-09-30T06:51:41;100172.47;;;13.15;74.39
74973;BME280;63529;56.320;43.990;2022-09-30T06:54:07;100178.38;;;13.33;73.80
74973;BME280;63529;56.320;43.990;2022-09-30T06:56:33;100179.69;;;13.50;73.22
74973;BME280;63529;56.320;43.990;2022-09-30T06:58:59;100184.72;;;13.67;72.66
74973;BME280;63529;56.320;43.990;2022-09-30T07:01:26;100181.72;;;13.79;72.40
74973;BME280;63529;56.320;43.990;2022-09-30T07:03:52;100187.00;;;14.04;72.17
74973;BME280;63529;56.320;43.990;2022-09-30T07:06:23;100178.41;;;14.52;71.24
74973;BME280;63529;56.320;43.990;2022-09-30T07:08:52;100181.22;;;15.05;70.01
74973;BME280;63529;56.320;43.990;2022-09-30T07:11:19;100180.19;;;15.54;68.71
74973;BME280;63529;56.320;43.990;2022-09-30T07:13:48;100188.75;;;16.04;67.76
74973;BME280;63529;56.320;43.990;2022-09-30T07:16:16;100187.06;;;16.50;66.49
74973;BME280;63529;56.320;43.990;2022-09-30T07:18:43;100184.56;;;16.73;65.20
74973;BME280;63529;56.320;43.990;2022-09-30T07:21:13;100176.47;;;16.92;64.94
74973;BME280;63529;56.320;43.990;2022-09-30T07:23:44;100179.63;;;17.26;64.04
74973;BME280;63529;56.320;43.990;2022-09-30T07:26:20;100181.25;;;17.55;63.77
74973;BME280;63529;56.320;43.990;2022-09-30T07:28:47;100177.16;;;17.85;62.45
74973;BME280;63529;56.320;43.990;2022-09-30T07:31:15;100172.22;;;18.14;62.05
74973;BME280;63529;56.320;43.990;2022-09-30T07:33:42;100172.53;;;18.49;61.18
74973;BME280;63529;56.320;43.990;2022-09-30T07:36:09;100176.47;;;18.65;60.68
74973;BME280;63529;56.320;43.990;2022-09-30T07:38:38;100178.78;;;18.36;60.62
74973;BME280;63529;56.320;43.990;2022-09-30T07:41:25;100176.13;;;18.08;61.22
74973;BME280;63529;56.320;43.990;2022-09-30T07:43:55;100179.53;;;18.14;61.26
74973;BME280;63529;56.320;43.990;2022-09-30T07:46:26;100169.56;;;18.37;61.21
74973;BME280;63529;56.320;43.990;2022-09-30T07:48:55;100182.41;;;18.67;60.49
74973;BME280;63529;56.320;43.990;2022-09-30T07:51:26;100182.47;;;18.62;59.80
74973;BME280;63529;56.320;43.990;2022-09-30T07:53:57;100187.53;;;18.78;59.96
74973;BME280;63529;56.320;43.990;2022-09-30T07:56:24;100182.25;;;18.95;59.96
74973;BME280;63529;56.320;43.990;2022-09-30T07:58:54;100181.91;;;19.90;58.64
74973;BME280;63529;56.320;43.990;2022-09-30T08:01:21;100188.44;;;21.65;55.14
74973;BME280;63529;56.320;43.990;2022-09-30T08:03:47;100176.50;;;22.38;52.88
74973;BME280;63529;56.320;43.990;2022-09-30T08:06:17;100181.81;;;24.19;49.47
74973;BME280;63529;56.320;43.990;2022-09-30T08:08:44;100180.56;;;26.11;46.99
74973;BME280;63529;56.320;43.990;2022-09-30T08:11:11;100174.94;;;27.70;44.11
74973;BME280;63529;56.320;43.990;2022-09-30T08:13:38;100183.94;;;27.70;42.13
74973;BME280;63529;56.320;43.990;2022-09-30T08:16:05;100176.34;;;26.72;42.60
74973;BME280;63529;56.320;43.990;2022-09-30T08:18:31;100177.63;;;25.85;44.77
74973;BME280;63529;56.320;43.990;2022-09-30T08:21:02;100185.38;;;24.76;45.63
74973;BME280;63529;56.320;43.990;2022-09-30T08:23:29;100183.91;;;23.61;48.06
74973;BME280;63529;56.320;43.990;2022-09-30T08:26:05;100178.22;;;22.63;49.98
74973;BME280;63529;56.320;43.990;2022-09-30T08:28:31;100179.53;;;22.15;50.91
74973;BME280;63529;56.320;43.990;2022-09-30T08:31:06;100179.47;;;21.94;51.92
74973;BME280;63529;56.320;43.990;2022-09-30T08:33:32;100181.94;;;21.87;51.84
74973;BME280;63529;56.320;43.990;2022-09-30T08:36:09;100178.25;;;23.09;49.96
74973;BME280;63529;56.320;43.990;2022-09-30T08:38:36;100181.91;;;23.25;48.90
74973;BME280;63529;56.320;43.990;2022-09-30T08:46:50;100177.06;;;21.34;52.78
74973;BME280;63529;56.320;43.990;2022-09-30T08:52:23;100190.72;;;20.91;54.97
74973;BME280;63529;56.320;43.990;2022-09-30T08:54:53;100187.78;;;21.30;54.11
74973;BME280;63529;56.320;43.990;2022-09-30T08:57:20;100191.53;;;20.82;54.31
74973;BME280;63529;56.320;43.990;2022-09-30T08:59:59;100196.16;;;20.30;55.98
74973;BME280;63529;56.320;43.990;2022-09-30T09:08:28;100199.81;;;18.61;58.93
74973;BME280;63529;56.320;43.990;2022-09-30T09:11:07;100197.69;;;18.36;59.93
74973;BME280;63529;56.320;43.990;2022-09-30T09:13:43;100201.22;;;18.23;60.01
74973;BME280;63529;56.320;43.990;2022-09-30T09:16:26;100200.13;;;18.24;60.48
74973;BME280;63529;56.320;43.990;2022-09-30T09:19:02;100202.72;;;18.29;60.53
74973;BME280;63529;56.320;43.990;2022-09-30T09:24:27;100189.03;;;18.11;61.12
74973;BME280;63529;56.320;43.990;2022-09-30T09:26:57;100194.38;;;17.89;61.62
74973;BME280;63529;56.320;43.990;2022-09-30T09:32:33;100191.66;;;17.48;62.92
74973;BME280;63529;56.320;43.990;2022-09-30T09:35:13;100190.94;;;17.42;63.24
74973;BME280;63529;56.320;43.990;2022-09-30T09:38:07;100192.72;;;17.33;63.48
74973;BME280;63529;56.320;43.990;2022-09-30T09:46:50;100201.09;;;17.18;64.91
74973;BME280;63529;56.320;43.990;2022-09-30T09:52:00;100205.34;;;17.65;63.05
74973;BME280;63529;56.320;43.990;2022-09-30T09:54:32;100212.06;;;17.68;62.42
74973;BME280;63529;56.320;43.990;2022-09-30T09:57:10;100205.50;;;17.74;62.94
74973;BME280;63529;56.320;43.990;2022-09-30T09:59:37;;;;17.77;
74973;BME280;63529;56.320;43.990;2022-09-30T10:02:26;100189.56;;;17.86;62.25
74973;BME280;63529;56.320;43.990;2022-09-30T10:04:52;100193.75;;;17.92;62.05
74973;BME280;63529;56.320;43.990;2022-09-30T10:07:28;100203.34;;;17.98;61.88
74973;BME280;63529;56.320;43.990;2022-09-30T10:12:36;100192.81;;;18.24;61.76
74973;BME280;63529;56.320;43.990;2022-09-30T10:15:12;100188.72;;;18.27;61.22
74973;BME280;63529;56.320;43.990;2022-09-30T10:17:41;100195.63;;;18.19;60.80
74973;BME280;63529;56.320;43.990;2022-09-30T10:20:22;100199.34;;;18.09;61.23
74973;BME280;63529;56.320;43.990;2022-09-30T10:22:49;100206.84;;;17.99;61.28
74973;BME280;63529;56.320;43.990;2022-09-30T10:25:21;100203.59;;;17.88;61.70
74973;BME280;63529;56.320;43.990;2022-09-30T10:27:54;100207.16;;;17.70;61.65
74973;BME280;63529;56.320;43.990;2022-09-30T10:30:30;100202.06;;;17.68;62.28
74973;BME280;63529;56.320;43.990;2022-09-30T10:32:57;100207.56;;;17.77;62.00
74973;BME280;63529;56.320;43.990;2022-09-30T10:35:23;100201.06;;;17.92;62.11
74973;BME280;63529;56.320;43.990;2022-09-30T10:37:53;100197.97;;;17.98;61.49
74973;BME280;63529;56.320;43.990;2022-09-30T10:40:21;100199.06;;;17.97;61.51
74973;BME280;63529;56.320;43.990;2022-09-30T10:42:53;100199.97;;;17.93;61.75
74973;BME280;63529;56.320;43.990;2022-09-30T10:45:37;100199.69;;;17.94;62.25
74973;BME280;63529;56.320;43.990;2022-09-30T10:48:15;100198.28;;;17.83;62.37
74973;BME280;63529;56.320;43.990;2022-09-30T10:50:49;100208.69;;;17.76;62.83
74973;BME280;63529;56.320;43.990;2022-09-30T10:53:22;100198.56;;;17.68;62.83
74973;BME280;63529;56.320;43.990;2022-09-30T10:55:50;100194.84;;;17.63;62.94
74973;BME280;63529;56.320;43.990;2022-09-30T10:58:50;100204.63;;;17.59;63.41
74973;BME280;63529;56.320;43.990;2022-09-30T11:06:20;100201.13;;;17.45;63.00
74973;BME280;63529;56.320;43.990;2022-09-30T11:08:57;100202.94;;;17.36;63.40
74973;BME280;63529;56.320;43.990;2022-09-30T11:11:34;100198.03;;;17.38;63.76
74973;BME280;63529;56.320;43.990;2022-09-30T11:14:11;100197.44;;;17.41;63.53
74973;BME280;63529;56.320;43.990;2022-09-30T11:16:55;100194.22;;;17.53;63.72
74973;BME280;63529;56.320;43.990;2022-09-30T11:19:40;100190.28;;;17.78;63.77
74973;BME280;63529;56.320;43.990;2022-09-30T11:24:55;100195.25;;;17.98;63.47
74973;BME280;63529;56.320;43.990;2022-09-30T11:35:53;100180.78;;;17.80;64.08
74973;BME280;63529;56.320;43.990;2022-09-30T11:38:28;100189.78;;;17.76;64.06
74973;BME280;63529;56.320;43.990;2022-09-30T11:41:29;100184.44;;;17.71;64.37
74973;BME280;63529;56.320;43.990;2022-09-30T11:44:19;100183.38;;;17.72;64.12
74973;BME280;63529;56.320;43.990;2022-09-30T11:52:48;100177.25;;;17.66;64.43
74973;BME280;63529;56.320;43.990;2022-09-30T11:55:39;100181.84;;;17.52;64.66
74973;BME280;63529;56.320;43.990;2022-09-30T11:58:13;100175.25;;;17.44;64.88
74973;BME280;63529;56.320;43.990;2022-09-30T12:00:48;100177.53;;;17.37;65.35
74973;BME280;63529;56.320;43.990;2022-09-30T12:03:25;100176.53;;;17.33;65.65
74973;BME280;63529;56.320;43.990;2022-09-30T12:05:55;100178.03;;;17.25;65.61
74973;BME280;63529;56.320;43.990;2022-09-30T12:11:17;100165.91;;;17.09;65.86
74973;BME280;63529;56.320;43.990;2022-09-30T12:13:58;100176.78;;;17.04;66.67
74973;BME280;63529;56.320;43.990;2022-09-30T12:16:27;100169.38;;;16.96;66.72
74973;BME280;63529;56.320;43.990;2022-09-30T12:19:10;100169.25;;;16.87;67.11
74973;BME280;63529;56.320;43.990;2022-09-30T12:26:39;100169.00;;;16.70;67.39
74973;BME280;63529;56.320;43.990;2022-09-30T12:32:11;100173.47;;;16.55;68.26
74973;BME280;63529;56.320;43.990;2022-09-30T12:46:31;100164.34;;;16.19;69.16
74973;BME280;63529;56.320;43.990;2022-09-30T12:49:10;100180.56;;;16.14;69.31
74973;BME280;63529;56.320;43.990;2022-09-30T12:51:44;100168.25;;;16.08;69.42
74973;BME280;63529;56.320;43.990;2022-09-30T12:54:17;100168.31;;;16.02;69.62
74973;BME280;63529;56.320;43.990;2022-09-30T12:56:45;100158.19;;;15.94;69.64
74973;BME280;63529;56.320;43.990;2022-09-30T12:59:27;100157.75;;;15.87;70.18
74973;BME280;63529;56.320;43.990;2022-09-30T13:01:55;100161.09;;;15.79;70.16
74973;BME280;63529;56.320;43.990;2022-09-30T13:04:31;100170.63;;;15.71;70.85
74973;BME280;63529;56.320;43.990;2022-09-30T13:09:34;100172.94;;;15.54;71.44
74973;BME280;63529;56.320;43.990;2022-09-30T13:14:33;100169.81;;;15.42;72.04
74973;BME280;63529;56.320;43.990;2022-09-30T13:19:44;100185.56;;;15.30;72.53
74973;BME280;63529;56.320;43.990;2022-09-30T13:25:10;100185.94;;;15.18;72.94
74973;BME280;63529;56.320;43.990;2022-09-30T13:27:42;100192.19;;;15.13;73.21
74973;BME280;63529;56.320;43.990;2022-09-30T13:32:46;100180.69;;;15.03;73.78
74973;BME280;63529;56.320;43.990;2022-09-30T13:35:31;100189.59;;;14.98;73.97
74973;BME280;63529;56.320;43.990;2022-09-30T13:46:38;100183.88;;;14.76;74.51
74973;BME280;63529;56.320;43.990;2022-09-30T13:48:59;100183.91;;;14.71;74.68
74973;BME280;63529;56.320;43.990;2022-09-30T13:51:30;100184.25;;;14.64;74.80
74973;BME280;63529;56.320;43.990;2022-09-30T13:54:04;100200.94;;;14.61;75.10
74973;BME280;63529;56.320;43.990;2022-09-30T13:56:35;100195.59;;;14.56;75.30
74973;BME280;63529;56.320;43.990;2022-09-30T14:18:04;100212.16;;;14.19;76.88
74973;BME280;63529;56.320;43.990;2022-09-30T14:21:18;100206.78;;;14.13;77.21
74973;BME280;63529;56.320;43.990;2022-09-30T14:24:26;100217.31;;;14.10;77.36
74973;BME280;63529;56.320;43.990;2022-09-30T14:30:02;100219.19;;;14.04;77.50
74973;BME280;63529;56.320;43.990;2022-09-30T14:32:33;100222.97;;;13.98;77.59
74973;BME280;63529;56.320;43.990;2022-09-30T14:35:05;100225.94;;;13.97;77.62
74973;BME280;63529;56.320;43.990;2022-09-30T14:37:38;100210.66;;;13.92;77.79
74973;BME280;63529;56.320;43.990;2022-09-30T14:40:12;100215.50;;;13.90;78.01
74973;BME280;63529;56.320;43.990;2022-09-30T14:42:41;100222.75;;;13.90;77.97
74973;BME280;63529;56.320;43.990;2022-09-30T14:45:26;100214.44;;;13.86;78.33
74973;BME280;63529;56.320;43.990;2022-09-30T14:47:56;100213.63;;;13.85;78.45
74973;BME280;63529;56.320;43.990;2022-09-30T14:50:26;100224.38;;;13.85;78.23
74973;BME280;63529;56.320;43.990;2022-09-30T14:52:56;100222.75;;;13.84;78.51
74973;BME280;63529;56.320;43.990;2022-09-30T14:55:34;100219.28;;;13.84;78.45
74973;BME280;63529;56.320;43.990;2022-09-30T14:58:38;100221.16;;;13.83;78.88
74973;BME280;63529;56.320;43.990;2022-09-30T15:01:11;100214.44;;;13.81;78.82
74973;BME280;63529;56.320;43.990;2022-09-30T15:03:42;100215.25;;;13.81;78.59
74973;BME280;63529;56.320;43.990;2022-09-30T15:06:29;100217.41;;;13.79;78.81
74973;BME280;63529;56.320;43.990;2022-09-30T15:09:03;100216.09;;;13.77;78.96
74973;BME280;63529;56.320;43.990;2022-09-30T15:11:30;100221.44;;;13.77;79.05
74973;BME280;63529;56.320;43.990;2022-09-30T15:14:02;100219.84;;;13.76;78.96
74973;BME280;63529;56.320;43.990;2022-09-30T15:16:31;100220.09;;;13.74;79.06
74973;BME280;63529;56.320;43.990;2022-09-30T15:18:57;100222.25;;;13.72;79.02
74973;BME280;63529;56.320;43.990;2022-09-30T15:21:26;100211.53;;;13.72;79.20
74973;BME280;63529;56.320;43.990;2022-09-30T15:23:57;100207.53;;;13.70;79.11
74973;BME280;63529;56.320;43.990;2022-09-30T15:26:26;100211.25;;;13.69;79.08
74973;BME280;63529;56.320;43.990;2022-09-30T15:28:52;100213.16;;;13.68;79.17
74973;BME280;63529;56.320;43.990;2022-09-30T15:31:27;100217.19;;;13.66;79.42
74973;BME280;63529;56.320;43.990;2022-09-30T15:34:20;100210.22;;;13.65;79.56
74973;BME280;63529;56.320;43.990;2022-09-30T15:36:58;100213.19;;;13.63;79.58
74973;BME280;63529;56.320;43.990;2022-09-30T15:39:35;100213.19;;;13.63;79.62
74973;BME280;63529;56.320;43.990;2022-09-30T15:42:37;100217.19;;;13.66;79.65
74973;BME280;63529;56.320;43.990;2022-09-30T15:47:57;100213.41;;;13.67;79.63
74973;BME280;63529;56.320;43.990;2022-09-30T15:50:55;100209.41;;;13.69;79.78
74973;BME280;63529;56.320;43.990;2022-09-30T15:53:24;100211.53;;;13.67;79.46
74973;BME280;63529;56.320;43.990;2022-09-30T15:55:54;100215.03;;;13.68;79.82
74973;BME280;63529;56.320;43.990;2022-09-30T15:58:32;100217.97;;;13.66;79.51
74973;BME280;63529;56.320;43.990;2022-09-30T16:01:19;100218.78;;;13.67;79.59
74973;BME280;63529;56.320;43.990;2022-09-30T16:03:48;100217.19;;;13.66;79.41
74973;BME280;63529;56.320;43.990;2022-09-30T16:06:15;100207.81;;;13.63;79.43
74973;BME280;63529;56.320;43.990;2022-09-30T16:08:52;100213.19;;;13.63;79.30
74973;BME280;63529;56.320;43.990;2022-09-30T16:11:22;100215.31;;;13.61;79.20
74973;BME280;63529;56.320;43.990;2022-09-30T16:13:50;100215.31;;;13.61;79.49
74973;BME280;63529;56.320;43.990;2022-09-30T16:16:24;100211.03;;;13.60;79.41